Chachapoyas, Peru
Current Conditions -  °F | °C
As of 1:30 PM on Thursday 23 Oct 2014 (Local Time) from SPJR Reporting Station
Rain Showers Rain Showers  
Wind Chill: 63°   Ceiling: 4000
Heat Index: 63°   Visibility: 6mi
Dew Point: 52°   Wind: 2mph
Humidity: 68%   Direction: NA
Pressure: 30.33"   Gusts: NA
Location:  6.23°S, 77.87°W
Report Text: SPJR 231830Z VRB02KT 9999 VCSH SCT026 BKN040 17/11 Q1027
Loading
Personal Weather Stations






























Interactive Weather Map New forecast layout! Learn more

10-Day Weather Forecast

Advertisements
Track Severe Weather on mobile